sensor_id;sensor_type;location;lat;lon;timestamp;P1;durP1;ratioP1;P2;durP2;ratioP2
52956;SDS011;38819;42.692;23.342;2022-08-01T00:00:08;3.80;;;2.33;;
52956;SDS011;38819;42.692;23.342;2022-08-01T00:02:34;3.58;;;2.50;;
52956;SDS011;38819;42.692;23.342;2022-08-01T00:05:00;2.58;;;2.40;;
52956;SDS011;38819;42.692;23.342;2022-08-01T00:07:26;2.35;;;2.15;;
52956;SDS011;38819;42.692;23.342;2022-08-01T00:09:51;7.82;;;2.40;;
52956;SDS011;38819;42.692;23.342;2022-08-01T00:12:17;2.42;;;2.22;;
52956;SDS011;38819;42.692;23.342;2022-08-01T00:14:42;3.00;;;2.80;;
52956;SDS011;38819;42.692;23.342;2022-08-01T00:17:08;3.60;;;3.40;;
52956;SDS011;38819;42.692;23.342;2022-08-01T00:19:33;11.98;;;4.30;;
52956;SDS011;38819;42.692;23.342;2022-08-01T00:21:59;4.35;;;3.75;;
52956;SDS011;38819;42.692;23.342;2022-08-01T00:24:24;5.97;;;4.60;;
52956;SDS011;38819;42.692;23.342;2022-08-01T00:26:50;5.20;;;4.70;;
52956;SDS011;38819;42.692;23.342;2022-08-01T00:29:15;8.02;;;4.57;;
52956;SDS011;38819;42.692;23.342;2022-08-01T00:31:41;5.85;;;4.75;;
52956;SDS011;38819;42.692;23.342;2022-08-01T00:34:06;5.95;;;4.47;;
52956;SDS011;38819;42.692;23.342;2022-08-01T00:36:31;7.45;;;4.75;;
52956;SDS011;38819;42.692;23.342;2022-08-01T00:38:57;4.95;;;4.50;;
52956;SDS011;38819;42.692;23.342;2022-08-01T00:41:22;5.03;;;4.43;;
52956;SDS011;38819;42.692;23.342;2022-08-01T00:43:48;8.25;;;4.65;;
52956;SDS011;38819;42.692;23.342;2022-08-01T00:46:13;5.25;;;4.75;;
52956;SDS011;38819;42.692;23.342;2022-08-01T00:48:39;6.68;;;4.63;;
52956;SDS011;38819;42.692;23.342;2022-08-01T00:51:05;4.85;;;3.83;;
52956;SDS011;38819;42.692;23.342;2022-08-01T00:53:30;4.55;;;4.10;;
52956;SDS011;38819;42.692;23.342;2022-08-01T00:55:56;4.35;;;3.95;;
52956;SDS011;38819;42.692;23.342;2022-08-01T00:58:22;4.50;;;4.10;;
52956;SDS011;38819;42.692;23.342;2022-08-01T01:00:48;4.50;;;3.80;;
52956;SDS011;38819;42.692;23.342;2022-08-01T01:03:13;4.30;;;4.00;;
52956;SDS011;38819;42.692;23.342;2022-08-01T01:05:48;4.72;;;4.32;;
52956;SDS011;38819;42.692;23.342;2022-08-01T01:09:00;5.00;;;3.50;;
52956;SDS011;38819;42.692;23.342;2022-08-01T01:14:44;3.63;;;3.42;;
52956;SDS011;38819;42.692;23.342;2022-08-01T01:17:14;5.32;;;4.03;;
52956;SDS011;38819;42.692;23.342;2022-08-01T01:19:45;5.68;;;3.85;;
52956;SDS011;38819;42.692;23.342;2022-08-01T01:22:21;3.72;;;3.25;;
52956;SDS011;38819;42.692;23.342;2022-08-01T01:25:04;4.43;;;3.83;;
52956;SDS011;38819;42.692;23.342;2022-08-01T01:32:44;6.57;;;3.25;;
52956;SDS011;38819;42.692;23.342;2022-08-01T01:35:15;5.60;;;3.40;;
52956;SDS011;38819;42.692;23.342;2022-08-01T01:37:45;4.05;;;3.10;;
52956;SDS011;38819;42.692;23.342;2022-08-01T01:40:12;4.63;;;3.00;;
52956;SDS011;38819;42.692;23.342;2022-08-01T01:42:40;6.65;;;3.40;;
52956;SDS011;38819;42.692;23.342;2022-08-01T01:45:07;4.30;;;3.38;;
52956;SDS011;38819;42.692;23.342;2022-08-01T01:47:34;3.65;;;3.30;;
52956;SDS011;38819;42.692;23.342;2022-08-01T01:52:27;3.55;;;3.25;;
52956;SDS011;38819;42.692;23.342;2022-08-01T01:54:54;5.57;;;3.97;;
52956;SDS011;38819;42.692;23.342;2022-08-01T01:59:48;2.93;;;2.73;;
52956;SDS011;38819;42.692;23.342;2022-08-01T02:02:16;4.53;;;3.58;;
52956;SDS011;38819;42.692;23.342;2022-08-01T02:04:43;3.78;;;2.28;;
52956;SDS011;38819;42.692;23.342;2022-08-01T02:07:12;3.05;;;2.03;;
52956;SDS011;38819;42.692;23.342;2022-08-01T02:09:39;2.80;;;2.10;;
52956;SDS011;38819;42.692;23.342;2022-08-01T02:12:07;2.63;;;1.92;;
52956;SDS011;38819;42.692;23.342;2022-08-01T02:14:37;3.38;;;2.13;;
52956;SDS011;38819;42.692;23.342;2022-08-01T02:17:05;6.85;;;2.38;;
52956;SDS011;38819;42.692;23.342;2022-08-01T02:19:32;5.18;;;2.10;;
52956;SDS011;38819;42.692;23.342;2022-08-01T02:22:18;5.95;;;2.70;;
52956;SDS011;38819;42.692;23.342;2022-08-01T02:27:17;3.22;;;2.65;;
52956;SDS011;38819;42.692;23.342;2022-08-01T02:29:53;5.90;;;3.13;;
52956;SDS011;38819;42.692;23.342;2022-08-01T02:32:25;3.35;;;3.05;;
52956;SDS011;38819;42.692;23.342;2022-08-01T02:34:55;3.05;;;2.75;;
52956;SDS011;38819;42.692;23.342;2022-08-01T02:37:24;3.28;;;3.03;;
52956;SDS011;38819;42.692;23.342;2022-08-01T02:39:52;3.58;;;3.15;;
52956;SDS011;38819;42.692;23.342;2022-08-01T02:42:19;6.50;;;3.00;;
52956;SDS011;38819;42.692;23.342;2022-08-01T02:47:13;3.95;;;3.10;;
52956;SDS011;38819;42.692;23.342;2022-08-01T02:49:44;4.65;;;3.35;;
52956;SDS011;38819;42.692;23.342;2022-08-01T02:52:12;8.88;;;3.75;;
52956;SDS011;38819;42.692;23.342;2022-08-01T02:54:40;3.28;;;3.00;;
52956;SDS011;38819;42.692;23.342;2022-08-01T02:57:08;4.95;;;4.00;;
52956;SDS011;38819;42.692;23.342;2022-08-01T02:59:36;7.53;;;3.92;;
52956;SDS011;38819;42.692;23.342;2022-08-01T03:02:04;3.47;;;2.85;;
52956;SDS011;38819;42.692;23.342;2022-08-01T03:04:32;7.88;;;3.30;;
52956;SDS011;38819;42.692;23.342;2022-08-01T03:06:59;7.43;;;2.97;;
52956;SDS011;38819;42.692;23.342;2022-08-01T03:09:27;3.95;;;3.42;;
52956;SDS011;38819;42.692;23.342;2022-08-01T03:11:55;5.10;;;3.00;;
52956;SDS011;38819;42.692;23.342;2022-08-01T03:14:24;3.78;;;3.05;;
52956;SDS011;38819;42.692;23.342;2022-08-01T03:16:51;3.70;;;3.40;;
52956;SDS011;38819;42.692;23.342;2022-08-01T03:19:18;3.05;;;2.75;;
52956;SDS011;38819;42.692;23.342;2022-08-01T03:21:45;7.10;;;3.17;;
52956;SDS011;38819;42.692;23.342;2022-08-01T03:24:12;6.40;;;3.22;;
52956;SDS011;38819;42.692;23.342;2022-08-01T03:26:38;3.25;;;2.92;;
52956;SDS011;38819;42.692;23.342;2022-08-01T03:31:35;5.47;;;3.60;;
52956;SDS011;38819;42.692;23.342;2022-08-01T03:34:03;4.53;;;3.00;;
52956;SDS011;38819;42.692;23.342;2022-08-01T03:36:29;4.10;;;3.72;;
52956;SDS011;38819;42.692;23.342;2022-08-01T03:38:59;7.35;;;3.33;;
52956;SDS011;38819;42.692;23.342;2022-08-01T03:41:28;5.60;;;3.30;;
52956;SDS011;38819;42.692;23.342;2022-08-01T03:44:03;7.30;;;3.08;;
52956;SDS011;38819;42.692;23.342;2022-08-01T03:46:33;9.13;;;2.83;;
52956;SDS011;38819;42.692;23.342;2022-08-01T03:49:06;3.22;;;2.90;;
52956;SDS011;38819;42.692;23.342;2022-08-01T03:51:36;4.18;;;2.63;;
52956;SDS011;38819;42.692;23.342;2022-08-01T03:54:03;4.05;;;2.90;;
52956;SDS011;38819;42.692;23.342;2022-08-01T03:56:30;5.32;;;3.03;;
52956;SDS011;38819;42.692;23.342;2022-08-01T03:58:58;4.20;;;2.97;;
52956;SDS011;38819;42.692;23.342;2022-08-01T04:03:50;7.07;;;3.72;;
52956;SDS011;38819;42.692;23.342;2022-08-01T04:06:16;4.47;;;4.07;;
52956;SDS011;38819;42.692;23.342;2022-08-01T04:08:42;24.40;;;4.78;;
52956;SDS011;38819;42.692;23.342;2022-08-01T04:11:08;6.28;;;4.38;;
52956;SDS011;38819;42.692;23.342;2022-08-01T04:13:34;7.25;;;4.20;;
52956;SDS011;38819;42.692;23.342;2022-08-01T04:16:00;12.20;;;4.43;;
52956;SDS011;38819;42.692;23.342;2022-08-01T04:18:25;14.63;;;4.68;;
52956;SDS011;38819;42.692;23.342;2022-08-01T04:20:51;8.85;;;4.82;;
52956;SDS011;38819;42.692;23.342;2022-08-01T04:23:20;7.55;;;4.93;;
52956;SDS011;38819;42.692;23.342;2022-08-01T04:25:50;7.70;;;4.30;;
52956;SDS011;38819;42.692;23.342;2022-08-01T04:28:15;22.52;;;6.20;;
52956;SDS011;38819;42.692;23.342;2022-08-01T04:30:42;15.07;;;6.00;;
52956;SDS011;38819;42.692;23.342;2022-08-01T04:33:11;11.65;;;7.13;;
52956;SDS011;38819;42.692;23.342;2022-08-01T04:35:41;7.22;;;5.90;;
52956;SDS011;38819;42.692;23.342;2022-08-01T04:38:10;9.43;;;5.60;;
52956;SDS011;38819;42.692;23.342;2022-08-01T04:40:39;9.23;;;5.53;;
52956;SDS011;38819;42.692;23.342;2022-08-01T04:43:06;8.25;;;5.65;;
52956;SDS011;38819;42.692;23.342;2022-08-01T04:45:32;16.67;;;6.38;;
52956;SDS011;38819;42.692;23.342;2022-08-01T04:47:59;9.50;;;5.67;;
52956;SDS011;38819;42.692;23.342;2022-08-01T04:50:25;14.98;;;6.55;;
52956;SDS011;38819;42.692;23.342;2022-08-01T04:52:50;12.35;;;6.55;;
52956;SDS011;38819;42.692;23.342;2022-08-01T04:55:16;14.95;;;7.07;;
52956;SDS011;38819;42.692;23.342;2022-08-01T04:57:42;16.48;;;6.53;;
52956;SDS011;38819;42.692;23.342;2022-08-01T05:00:10;15.90;;;6.82;;
52956;SDS011;38819;42.692;23.342;2022-08-01T05:02:36;10.38;;;6.47;;
52956;SDS011;38819;42.692;23.342;2022-08-01T05:05:01;11.25;;;5.85;;
52956;SDS011;38819;42.692;23.342;2022-08-01T05:07:27;12.27;;;6.20;;
52956;SDS011;38819;42.692;23.342;2022-08-01T05:09:52;12.57;;;5.22;;
52956;SDS011;38819;42.692;23.342;2022-08-01T05:12:18;14.68;;;6.38;;
52956;SDS011;38819;42.692;23.342;2022-08-01T05:14:43;9.20;;;5.07;;
52956;SDS011;38819;42.692;23.342;2022-08-01T05:17:09;10.52;;;4.80;;
52956;SDS011;38819;42.692;23.342;2022-08-01T05:19:36;8.52;;;4.70;;
52956;SDS011;38819;42.692;23.342;2022-08-01T05:22:04;6.55;;;4.78;;
52956;SDS011;38819;42.692;23.342;2022-08-01T05:24:31;10.52;;;4.85;;
52956;SDS011;38819;42.692;23.342;2022-08-01T05:26:58;8.70;;;4.40;;
52956;SDS011;38819;42.692;23.342;2022-08-01T05:29:24;6.38;;;4.32;;
52956;SDS011;38819;42.692;23.342;2022-08-01T05:31:50;9.32;;;3.90;;
52956;SDS011;38819;42.692;23.342;2022-08-01T05:34:16;6.85;;;3.92;;
52956;SDS011;38819;42.692;23.342;2022-08-01T05:36:42;5.30;;;3.13;;
52956;SDS011;38819;42.692;23.342;2022-08-01T05:39:07;8.57;;;3.92;;
52956;SDS011;38819;42.692;23.342;2022-08-01T05:41:33;3.63;;;3.25;;
52956;SDS011;38819;42.692;23.342;2022-08-01T05:43:59;8.57;;;3.90;;
52956;SDS011;38819;42.692;23.342;2022-08-01T05:46:24;4.85;;;3.05;;
52956;SDS011;38819;42.692;23.342;2022-08-01T05:48:50;13.40;;;4.15;;
52956;SDS011;38819;42.692;23.342;2022-08-01T05:51:15;7.18;;;3.92;;
52956;SDS011;38819;42.692;23.342;2022-08-01T05:53:40;8.13;;;3.72;;
52956;SDS011;38819;42.692;23.342;2022-08-01T05:56:06;6.40;;;3.55;;
52956;SDS011;38819;42.692;23.342;2022-08-01T05:58:31;8.30;;;3.13;;
52956;SDS011;38819;42.692;23.342;2022-08-01T06:00:57;6.72;;;3.25;;
52956;SDS011;38819;42.692;23.342;2022-08-01T06:03:23;3.58;;;3.08;;
52956;SDS011;38819;42.692;23.342;2022-08-01T06:05:49;6.45;;;3.22;;
52956;SDS011;38819;42.692;23.342;2022-08-01T06:08:14;7.93;;;2.95;;
52956;SDS011;38819;42.692;23.342;2022-08-01T06:10:39;7.03;;;3.00;;
52956;SDS011;38819;42.692;23.342;2022-08-01T06:13:05;7.65;;;2.50;;
52956;SDS011;38819;42.692;23.342;2022-08-01T06:15:31;5.43;;;2.78;;
52956;SDS011;38819;42.692;23.342;2022-08-01T06:17:57;7.00;;;3.17;;
52956;SDS011;38819;42.692;23.342;2022-08-01T06:20:22;3.35;;;2.83;;
52956;SDS011;38819;42.692;23.342;2022-08-01T06:22:47;7.10;;;2.63;;
52956;SDS011;38819;42.692;23.342;2022-08-01T06:25:13;3.33;;;2.85;;
52956;SDS011;38819;42.692;23.342;2022-08-01T06:27:38;6.85;;;2.58;;
52956;SDS011;38819;42.692;23.342;2022-08-01T06:30:04;10.90;;;2.88;;
52956;SDS011;38819;42.692;23.342;2022-08-01T06:32:30;4.63;;;3.03;;
52956;SDS011;38819;42.692;23.342;2022-08-01T06:34:56;4.93;;;2.05;;
52956;SDS011;38819;42.692;23.342;2022-08-01T06:37:22;3.30;;;2.38;;
52956;SDS011;38819;42.692;23.342;2022-08-01T06:39:48;2.78;;;2.35;;
52956;SDS011;38819;42.692;23.342;2022-08-01T06:42:14;4.25;;;2.20;;
52956;SDS011;38819;42.692;23.342;2022-08-01T06:44:40;6.85;;;2.20;;
52956;SDS011;38819;42.692;23.342;2022-08-01T06:47:06;3.00;;;1.90;;
52956;SDS011;38819;42.692;23.342;2022-08-01T06:49:31;3.88;;;1.90;;
52956;SDS011;38819;42.692;23.342;2022-08-01T06:51:56;5.15;;;2.40;;
52956;SDS011;38819;42.692;23.342;2022-08-01T06:54:22;2.80;;;1.50;;
52956;SDS011;38819;42.692;23.342;2022-08-01T06:56:47;4.85;;;2.30;;
52956;SDS011;38819;42.692;23.342;2022-08-01T06:59:13;8.07;;;2.20;;
52956;SDS011;38819;42.692;23.342;2022-08-01T07:01:38;2.33;;;1.80;;
52956;SDS011;38819;42.692;23.342;2022-08-01T07:04:04;4.57;;;2.10;;
52956;SDS011;38819;42.692;23.342;2022-08-01T07:06:30;4.18;;;2.30;;
52956;SDS011;38819;42.692;23.342;2022-08-01T07:08:55;5.72;;;2.15;;
52956;SDS011;38819;42.692;23.342;2022-08-01T07:11:21;3.45;;;2.40;;
52956;SDS011;38819;42.692;23.342;2022-08-01T07:13:47;6.80;;;2.05;;
52956;SDS011;38819;42.692;23.342;2022-08-01T07:16:13;4.05;;;1.88;;
52956;SDS011;38819;42.692;23.342;2022-08-01T07:18:39;5.28;;;2.42;;
52956;SDS011;38819;42.692;23.342;2022-08-01T07:21:05;3.78;;;1.85;;
52956;SDS011;38819;42.692;23.342;2022-08-01T07:23:30;5.32;;;2.33;;
52956;SDS011;38819;42.692;23.342;2022-08-01T07:25:55;14.35;;;2.35;;
52956;SDS011;38819;42.692;23.342;2022-08-01T07:28:21;8.50;;;1.77;;
52956;SDS011;38819;42.692;23.342;2022-08-01T07:30:46;5.22;;;1.88;;
52956;SDS011;38819;42.692;23.342;2022-08-01T07:33:12;2.67;;;2.28;;
52956;SDS011;38819;42.692;23.342;2022-08-01T07:35:37;2.17;;;1.98;;
52956;SDS011;38819;42.692;23.342;2022-08-01T07:38:04;4.13;;;1.75;;
52956;SDS011;38819;42.692;23.342;2022-08-01T07:40:30;3.03;;;1.67;;
52956;SDS011;38819;42.692;23.342;2022-08-01T07:42:56;6.90;;;2.10;;
52956;SDS011;38819;42.692;23.342;2022-08-01T07:45:21;3.00;;;1.65;;
52956;SDS011;38819;42.692;23.342;2022-08-01T07:47:47;3.45;;;2.13;;
52956;SDS011;38819;42.692;23.342;2022-08-01T07:50:14;1.63;;;1.45;;
52956;SDS011;38819;42.692;23.342;2022-08-01T07:52:40;3.28;;;1.65;;
52956;SDS011;38819;42.692;23.342;2022-08-01T07:55:06;4.25;;;2.28;;
52956;SDS011;38819;42.692;23.342;2022-08-01T07:57:33;6.23;;;2.03;;
52956;SDS011;38819;42.692;23.342;2022-08-01T07:59:58;7.05;;;2.17;;
52956;SDS011;38819;42.692;23.342;2022-08-01T08:02:23;3.42;;;2.05;;
52956;SDS011;38819;42.692;23.342;2022-08-01T08:04:49;5.35;;;2.28;;
52956;SDS011;38819;42.692;23.342;2022-08-01T08:07:14;3.80;;;2.20;;
52956;SDS011;38819;42.692;23.342;2022-08-01T08:09:40;6.18;;;2.03;;
52956;SDS011;38819;42.692;23.342;2022-08-01T08:12:06;5.75;;;2.35;;
52956;SDS011;38819;42.692;23.342;2022-08-01T08:14:31;4.28;;;2.03;;
52956;SDS011;38819;42.692;23.342;2022-08-01T08:16:57;5.20;;;2.25;;
52956;SDS011;38819;42.692;23.342;2022-08-01T08:19:22;7.47;;;2.38;;
52956;SDS011;38819;42.692;23.342;2022-08-01T08:21:47;3.88;;;2.15;;
52956;SDS011;38819;42.692;23.342;2022-08-01T08:24:13;3.58;;;2.08;;
52956;SDS011;38819;42.692;23.342;2022-08-01T08:26:44;2.28;;;1.83;;
52956;SDS011;38819;42.692;23.342;2022-08-01T08:29:10;6.20;;;2.25;;
52956;SDS011;38819;42.692;23.342;2022-08-01T08:31:35;3.03;;;2.28;;
52956;SDS011;38819;42.692;23.342;2022-08-01T08:34:01;4.20;;;2.25;;
52956;SDS011;38819;42.692;23.342;2022-08-01T08:36:26;6.90;;;2.15;;
52956;SDS011;38819;42.692;23.342;2022-08-01T08:38:52;6.53;;;2.65;;
52956;SDS011;38819;42.692;23.342;2022-08-01T08:41:17;3.63;;;2.05;;
52956;SDS011;38819;42.692;23.342;2022-08-01T08:43:43;6.43;;;2.53;;
52956;SDS011;38819;42.692;23.342;2022-08-01T08:46:08;5.57;;;2.20;;
52956;SDS011;38819;42.692;23.342;2022-08-01T08:48:36;2.90;;;2.05;;
52956;SDS011;38819;42.692;23.342;2022-08-01T08:51:04;3.83;;;1.73;;
52956;SDS011;38819;42.692;23.342;2022-08-01T08:53:31;3.70;;;2.20;;
52956;SDS011;38819;42.692;23.342;2022-08-01T08:55:58;8.63;;;2.33;;
52956;SDS011;38819;42.692;23.342;2022-08-01T08:58:24;6.63;;;1.83;;
52956;SDS011;38819;42.692;23.342;2022-08-01T09:00:51;1.77;;;1.67;;
52956;SDS011;38819;42.692;23.342;2022-08-01T09:03:18;4.05;;;2.03;;
52956;SDS011;38819;42.692;23.342;2022-08-01T09:05:44;7.82;;;2.10;;
52956;SDS011;38819;42.692;23.342;2022-08-01T09:08:09;4.15;;;1.63;;
52956;SDS011;38819;42.692;23.342;2022-08-01T09:10:35;8.30;;;2.05;;
52956;SDS011;38819;42.692;23.342;2022-08-01T09:15:40;2.58;;;1.90;;
52956;SDS011;38819;42.692;23.342;2022-08-01T09:21:17;2.58;;;2.28;;
52956;SDS011;38819;42.692;23.342;2022-08-01T09:26:20;7.13;;;1.98;;
52956;SDS011;38819;42.692;23.342;2022-08-01T09:28:54;4.50;;;1.92;;
52956;SDS011;38819;42.692;23.342;2022-08-01T09:31:20;2.60;;;1.80;;
52956;SDS011;38819;42.692;23.342;2022-08-01T09:34:00;2.58;;;1.90;;
52956;SDS011;38819;42.692;23.342;2022-08-01T09:39:28;2.42;;;1.55;;
52956;SDS011;38819;42.692;23.342;2022-08-01T09:41:56;7.78;;;2.25;;
52956;SDS011;38819;42.692;23.342;2022-08-01T09:44:36;2.92;;;1.92;;
52956;SDS011;38819;42.692;23.342;2022-08-01T09:47:02;3.88;;;1.77;;
52956;SDS011;38819;42.692;23.342;2022-08-01T09:49:31;5.22;;;1.70;;
52956;SDS011;38819;42.692;23.342;2022-08-01T09:51:58;1.77;;;1.67;;
52956;SDS011;38819;42.692;23.342;2022-08-01T09:54:35;5.10;;;1.80;;
52956;SDS011;38819;42.692;23.342;2022-08-01T09:57:17;4.18;;;1.60;;
52956;SDS011;38819;42.692;23.342;2022-08-01T09:59:47;3.72;;;1.48;;
52956;SDS011;38819;42.692;23.342;2022-08-01T10:05:05;3.58;;;1.73;;
52956;SDS011;38819;42.692;23.342;2022-08-01T10:07:33;2.80;;;1.60;;
52956;SDS011;38819;42.692;23.342;2022-08-01T10:10:11;3.08;;;2.10;;
52956;SDS011;38819;42.692;23.342;2022-08-01T10:12:38;5.50;;;2.22;;
52956;SDS011;38819;42.692;23.342;2022-08-01T10:15:05;4.10;;;1.83;;
52956;SDS011;38819;42.692;23.342;2022-08-01T10:19:59;2.92;;;1.60;;
52956;SDS011;38819;42.692;23.342;2022-08-01T10:22:27;2.10;;;1.67;;
52956;SDS011;38819;42.692;23.342;2022-08-01T10:24:56;3.83;;;1.60;;
52956;SDS011;38819;42.692;23.342;2022-08-01T10:27:25;9.45;;;2.05;;
52956;SDS011;38819;42.692;23.342;2022-08-01T10:29:57;1.98;;;1.85;;
52956;SDS011;38819;42.692;23.342;2022-08-01T10:32:32;2.97;;;1.90;;
52956;SDS011;38819;42.692;23.342;2022-08-01T10:35:00;5.03;;;1.70;;
52956;SDS011;38819;42.692;23.342;2022-08-01T10:37:25;7.22;;;1.92;;
52956;SDS011;38819;42.692;23.342;2022-08-01T10:39:51;3.53;;;1.60;;
52956;SDS011;38819;42.692;23.342;2022-08-01T10:44:44;3.25;;;1.92;;
52956;SDS011;38819;42.692;23.342;2022-08-01T10:47:23;2.35;;;1.55;;
52956;SDS011;38819;42.692;23.342;2022-08-01T10:49:56;1.98;;;1.52;;
52956;SDS011;38819;42.692;23.342;2022-08-01T10:52:31;3.75;;;1.35;;
52956;SDS011;38819;42.692;23.342;2022-08-01T10:55:03;5.03;;;1.67;;
52956;SDS011;38819;42.692;23.342;2022-08-01T10:57:44;1.50;;;1.40;;
52956;SDS011;38819;42.692;23.342;2022-08-01T11:00:17;2.30;;;1.42;;
52956;SDS011;38819;42.692;23.342;2022-08-01T11:02:56;4.40;;;1.70;;
52956;SDS011;38819;42.692;23.342;2022-08-01T11:05:25;2.65;;;1.52;;
52956;SDS011;38819;42.692;23.342;2022-08-01T11:07:53;7.40;;;1.70;;
52956;SDS011;38819;42.692;23.342;2022-08-01T11:10:39;2.58;;;1.42;;
52956;SDS011;38819;42.692;23.342;2022-08-01T11:13:07;1.70;;;1.60;;
52956;SDS011;38819;42.692;23.342;2022-08-01T11:15:34;5.60;;;1.77;;
52956;SDS011;38819;42.692;23.342;2022-08-01T11:18:01;3.10;;;1.90;;
52956;SDS011;38819;42.692;23.342;2022-08-01T11:20:29;6.50;;;1.80;;
52956;SDS011;38819;42.692;23.342;2022-08-01T11:31:24;2.00;;;1.70;;
52956;SDS011;38819;42.692;23.342;2022-08-01T11:38:40;3.33;;;1.27;;
52956;SDS011;38819;42.692;23.342;2022-08-01T11:41:10;3.70;;;1.75;;
52956;SDS011;38819;42.692;23.342;2022-08-01T11:43:36;2.53;;;1.83;;
52956;SDS011;38819;42.692;23.342;2022-08-01T11:49:59;2.92;;;1.80;;
52956;SDS011;38819;42.692;23.342;2022-08-01T11:54:46;7.43;;;2.15;;
52956;SDS011;38819;42.692;23.342;2022-08-01T11:57:14;2.28;;;1.92;;
52956;SDS011;38819;42.692;23.342;2022-08-01T11:59:45;7.63;;;2.00;;
52956;SDS011;38819;42.692;23.342;2022-08-01T12:02:27;8.73;;;2.42;;
52956;SDS011;38819;42.692;23.342;2022-08-01T12:05:07;2.22;;;1.60;;
52956;SDS011;38819;42.692;23.342;2022-08-01T12:07:34;3.75;;;2.05;;
52956;SDS011;38819;42.692;23.342;2022-08-01T12:12:29;4.32;;;1.70;;
52956;SDS011;38819;42.692;23.342;2022-08-01T12:14:56;3.88;;;2.25;;
52956;SDS011;38819;42.692;23.342;2022-08-01T12:17:31;2.00;;;1.70;;
52956;SDS011;38819;42.692;23.342;2022-08-01T12:20:05;2.47;;;1.80;;
52956;SDS011;38819;42.692;23.342;2022-08-01T12:22:32;2.08;;;1.88;;
52956;SDS011;38819;42.692;23.342;2022-08-01T12:25:09;2.75;;;1.73;;
52956;SDS011;38819;42.692;23.342;2022-08-01T12:27:36;2.60;;;1.95;;
52956;SDS011;38819;42.692;23.342;2022-08-01T12:32:34;2.03;;;1.83;;
52956;SDS011;38819;42.692;23.342;2022-08-01T12:37:30;6.05;;;1.95;;
52956;SDS011;38819;42.692;23.342;2022-08-01T12:39:57;1.65;;;1.52;;
52956;SDS011;38819;42.692;23.342;2022-08-01T12:42:24;2.65;;;1.75;;
52956;SDS011;38819;42.692;23.342;2022-08-01T12:44:50;1.95;;;1.67;;
52956;SDS011;38819;42.692;23.342;2022-08-01T12:47:17;3.55;;;1.70;;
52956;SDS011;38819;42.692;23.342;2022-08-01T12:49:45;2.40;;;1.83;;
52956;SDS011;38819;42.692;23.342;2022-08-01T12:52:12;2.00;;;1.80;;
52956;SDS011;38819;42.692;23.342;2022-08-01T12:57:40;4.78;;;1.70;;
52956;SDS011;38819;42.692;23.342;2022-08-01T13:00:10;2.25;;;1.70;;
52956;SDS011;38819;42.692;23.342;2022-08-01T13:02:38;7.45;;;2.05;;
52956;SDS011;38819;42.692;23.342;2022-08-01T13:05:05;3.55;;;1.83;;
52956;SDS011;38819;42.692;23.342;2022-08-01T13:10:09;5.35;;;2.15;;
52956;SDS011;38819;42.692;23.342;2022-08-01T13:12:37;4.93;;;1.67;;
52956;SDS011;38819;42.692;23.342;2022-08-01T13:15:19;6.35;;;2.45;;
52956;SDS011;38819;42.692;23.342;2022-08-01T13:18:00;4.38;;;1.90;;
52956;SDS011;38819;42.692;23.342;2022-08-01T13:20:45;2.28;;;1.83;;
52956;SDS011;38819;42.692;23.342;2022-08-01T13:23:11;5.93;;;1.67;;
52956;SDS011;38819;42.692;23.342;2022-08-01T13:25:52;1.42;;;1.23;;
52956;SDS011;38819;42.692;23.342;2022-08-01T13:28:22;6.25;;;1.77;;
52956;SDS011;38819;42.692;23.342;2022-08-01T13:30:59;2.63;;;1.50;;
52956;SDS011;38819;42.692;23.342;2022-08-01T13:33:47;4.95;;;1.40;;
52956;SDS011;38819;42.692;23.342;2022-08-01T13:36:13;3.83;;;1.55;;
52956;SDS011;38819;42.692;23.342;2022-08-01T13:38:39;2.53;;;1.73;;
52956;SDS011;38819;42.692;23.342;2022-08-01T13:41:24;2.70;;;1.77;;
52956;SDS011;38819;42.692;23.342;2022-08-01T13:43:50;2.33;;;1.50;;
52956;SDS011;38819;42.692;23.342;2022-08-01T13:46:16;3.80;;;1.50;;
52956;SDS011;38819;42.692;23.342;2022-08-01T13:48:41;2.30;;;1.50;;
52956;SDS011;38819;42.692;23.342;2022-08-01T13:51:07;8.40;;;1.90;;
52956;SDS011;38819;42.692;23.342;2022-08-01T13:53:32;2.53;;;1.50;;
52956;SDS011;38819;42.692;23.342;2022-08-01T13:55:58;3.05;;;1.50;;
52956;SDS011;38819;42.692;23.342;2022-08-01T13:58:23;1.40;;;1.27;;
52956;SDS011;38819;42.692;23.342;2022-08-01T14:00:49;3.35;;;1.52;;
52956;SDS011;38819;42.692;23.342;2022-08-01T14:03:14;3.38;;;1.45;;
52956;SDS011;38819;42.692;23.342;2022-08-01T14:05:41;3.17;;;1.50;;
52956;SDS011;38819;42.692;23.342;2022-08-01T14:08:07;13.17;;;2.00;;
52956;SDS011;38819;42.692;23.342;2022-08-01T14:10:33;3.63;;;1.98;;
52956;SDS011;38819;42.692;23.342;2022-08-01T14:12:59;3.70;;;1.48;;
52956;SDS011;38819;42.692;23.342;2022-08-01T14:15:25;4.65;;;1.60;;
52956;SDS011;38819;42.692;23.342;2022-08-01T14:17:50;4.15;;;1.75;;
52956;SDS011;38819;42.692;23.342;2022-08-01T14:20:16;3.20;;;1.52;;
52956;SDS011;38819;42.692;23.342;2022-08-01T14:22:44;3.30;;;1.27;;
52956;SDS011;38819;42.692;23.342;2022-08-01T14:25:10;2.17;;;1.77;;
52956;SDS011;38819;42.692;23.342;2022-08-01T14:27:36;3.97;;;1.67;;
52956;SDS011;38819;42.692;23.342;2022-08-01T14:30:02;1.42;;;1.33;;
52956;SDS011;38819;42.692;23.342;2022-08-01T14:32:28;3.42;;;1.60;;
52956;SDS011;38819;42.692;23.342;2022-08-01T14:34:54;1.05;;;1.00;;
52956;SDS011;38819;42.692;23.342;2022-08-01T14:37:20;3.30;;;1.60;;
52956;SDS011;38819;42.692;23.342;2022-08-01T14:39:46;3.25;;;1.67;;
52956;SDS011;38819;42.692;23.342;2022-08-01T14:42:11;2.72;;;1.33;;
52956;SDS011;38819;42.692;23.342;2022-08-01T14:44:36;2.75;;;1.33;;
52956;SDS011;38819;42.692;23.342;2022-08-01T14:47:02;1.40;;;1.30;;
52956;SDS011;38819;42.692;23.342;2022-08-01T14:49:27;2.85;;;1.40;;
52956;SDS011;38819;42.692;23.342;2022-08-01T14:51:53;1.42;;;1.33;;
52956;SDS011;38819;42.692;23.342;2022-08-01T14:54:18;3.45;;;1.23;;
52956;SDS011;38819;42.692;23.342;2022-08-01T14:56:44;2.78;;;1.42;;
52956;SDS011;38819;42.692;23.342;2022-08-01T14:59:09;2.22;;;1.27;;
52956;SDS011;38819;42.692;23.342;2022-08-01T15:01:35;1.67;;;1.50;;
52956;SDS011;38819;42.692;23.342;2022-08-01T15:04:00;1.35;;;1.20;;
52956;SDS011;38819;42.692;23.342;2022-08-01T15:06:25;1.75;;;1.48;;
52956;SDS011;38819;42.692;23.342;2022-08-01T15:08:51;2.42;;;1.83;;
52956;SDS011;38819;42.692;23.342;2022-08-01T15:11:16;2.28;;;1.23;;
52956;SDS011;38819;42.692;23.342;2022-08-01T15:13:42;3.83;;;1.05;;
52956;SDS011;38819;42.692;23.342;2022-08-01T15:16:07;2.22;;;1.33;;
52956;SDS011;38819;42.692;23.342;2022-08-01T15:18:33;2.13;;;1.10;;
52956;SDS011;38819;42.692;23.342;2022-08-01T15:20:58;1.70;;;1.08;;
52956;SDS011;38819;42.692;23.342;2022-08-01T15:23:24;1.60;;;1.23;;
52956;SDS011;38819;42.692;23.342;2022-08-01T15:25:49;1.30;;;1.20;;
52956;SDS011;38819;42.692;23.342;2022-08-01T15:28:15;1.50;;;1.15;;
52956;SDS011;38819;42.692;23.342;2022-08-01T15:30:40;4.32;;;1.63;;
52956;SDS011;38819;42.692;23.342;2022-08-01T15:33:06;1.30;;;1.20;;
52956;SDS011;38819;42.692;23.342;2022-08-01T15:35:32;1.33;;;1.20;;
52956;SDS011;38819;42.692;23.342;2022-08-01T15:37:58;2.35;;;1.30;;
52956;SDS011;38819;42.692;23.342;2022-08-01T15:40:23;1.30;;;1.20;;
52956;SDS011;38819;42.692;23.342;2022-08-01T15:42:49;2.30;;;1.60;;
52956;SDS011;38819;42.692;23.342;2022-08-01T15:45:14;3.95;;;1.38;;
52956;SDS011;38819;42.692;23.342;2022-08-01T15:47:43;1.30;;;1.20;;
52956;SDS011;38819;42.692;23.342;2022-08-01T15:50:09;1.20;;;1.10;;